createdAt,value
2022-11-09T00:01:04.357Z,94388.38
2022-11-09T00:03:31.107Z,94365.78
2022-11-09T00:05:59.698Z,94374.81
2022-11-09T00:08:26.895Z,94378.97
2022-11-09T00:10:53.760Z,94393.22
2022-11-09T00:13:21.029Z,94371.72
2022-11-09T00:15:48.066Z,94370.59
2022-11-09T00:18:14.853Z,94368.09
2022-11-09T00:20:47.722Z,94384.50
2022-11-09T00:23:16.878Z,94375.72
2022-11-09T00:25:44.424Z,94394.97
2022-11-09T00:28:11.287Z,94388.38
2022-11-09T00:30:38.023Z,94356.78
2022-11-09T00:33:04.827Z,94374.13
2022-11-09T00:35:31.693Z,94377.81
2022-11-09T00:37:58.533Z,94350.00
2022-11-09T00:40:25.346Z,94372.06
2022-11-09T00:42:52.157Z,94359.06
2022-11-09T00:45:18.938Z,94364.81
2022-11-09T00:47:45.692Z,94354.97
2022-11-09T00:50:12.494Z,94374.66
2022-11-09T00:52:39.249Z,94358.91
2022-11-09T00:55:06.358Z,94347.00
2022-11-09T00:57:33.088Z,94342.59
2022-11-09T00:59:59.831Z,94352.44
2022-11-09T01:02:26.552Z,94366.97
2022-11-09T01:04:53.284Z,94359.09
2022-11-09T01:07:20.045Z,94365.13
2022-11-09T01:09:47.896Z,94365.41
2022-11-09T01:12:14.665Z,94360.72
2022-11-09T01:14:41.386Z,94327.84
2022-11-09T01:17:08.233Z,94367.31
2022-11-09T01:19:34.974Z,94361.91
2022-11-09T01:22:01.704Z,94385.16
2022-11-09T01:24:28.466Z,94369.53
2022-11-09T01:26:55.187Z,94332.06
2022-11-09T01:29:21.949Z,94376.69
2022-11-09T01:31:49.138Z,94365.19
2022-11-09T01:34:17.579Z,94371.78
2022-11-09T01:36:44.425Z,94357.94
2022-11-09T01:39:11.201Z,94392.34
2022-11-09T01:41:37.974Z,94380.94
2022-11-09T01:44:20.158Z,94389.72
2022-11-09T01:46:57.608Z,94371.94
2022-11-09T01:49:50.106Z,94388.78
2022-11-09T01:52:34.244Z,94375.06
2022-11-09T01:55:16.167Z,94370.38
2022-11-09T01:57:54.826Z,94375.44
2022-11-09T02:00:21.841Z,94333.41
2022-11-09T02:02:56.440Z,94368.19
2022-11-09T02:05:30.194Z,94368.44
2022-11-09T02:08:01.846Z,94357.75
2022-11-09T02:10:41.103Z,94365.00
2022-11-09T02:13:09.342Z,94345.09
2022-11-09T02:15:39.161Z,94328.09
2022-11-09T02:18:09.794Z,94330.84
2022-11-09T02:20:50.401Z,94320.47
2022-11-09T02:23:19.679Z,94340.69
2022-11-09T02:26:00.245Z,94339.31
2022-11-09T02:28:27.826Z,94331.47
2022-11-09T02:30:56.633Z,94326.97
2022-11-09T02:33:23.814Z,94341.78
2022-11-09T02:35:50.759Z,94344.53
2022-11-09T02:38:17.605Z,94318.22
2022-11-09T02:40:48.759Z,94330.56
2022-11-09T02:43:17.155Z,94321.91
2022-11-09T02:45:44.152Z,94319.84
2022-11-09T02:48:10.921Z,94331.06
2022-11-09T02:50:37.690Z,94309.44
2022-11-09T02:53:04.530Z,94328.63
2022-11-09T02:55:31.349Z,94336.28
2022-11-09T02:57:58.088Z,94332.16
2022-11-09T03:00:24.848Z,94318.63
2022-11-09T03:02:51.769Z,94332.16
2022-11-09T03:05:18.688Z,94340.50
2022-11-09T03:07:45.414Z,94334.09
2022-11-09T03:10:12.350Z,94344.53
2022-11-09T03:12:39.123Z,94331.38
2022-11-09T03:15:08.684Z,94342.97
2022-11-09T03:17:35.790Z,94333.41
2022-11-09T03:20:02.702Z,94322.31
2022-11-09T03:22:29.700Z,94321.63
2022-11-09T03:24:56.514Z,94336.09
2022-11-09T03:27:23.275Z,94313.00
2022-11-09T03:29:50.157Z,94332.69
2022-11-09T03:32:16.977Z,94345.00
2022-11-09T03:34:43.785Z,94334.72
2022-11-09T03:37:10.594Z,94325.00
2022-11-09T03:39:37.350Z,94354.53
2022-11-09T03:42:04.361Z,94333.44
2022-11-09T03:44:31.089Z,94320.84
2022-11-09T03:46:57.844Z,94342.16
2022-11-09T03:49:24.563Z,94337.41
2022-11-09T03:51:51.790Z,94341.22
2022-11-09T03:54:18.587Z,94344.09
2022-11-09T03:56:45.357Z,94347.03
2022-11-09T03:59:12.100Z,94351.66
2022-11-09T04:01:38.999Z,94364.09
2022-11-09T04:04:05.765Z,94369.31
2022-11-09T04:06:32.678Z,94370.13
2022-11-09T04:08:59.464Z,94363.53
2022-11-09T04:11:26.253Z,94375.06
2022-11-09T04:13:52.975Z,94362.28
2022-11-09T04:16:19.744Z,94372.81
2022-11-09T04:18:46.536Z,94389.53
2022-11-09T04:21:13.305Z,94392.53
2022-11-09T04:23:40.082Z,94389.22
2022-11-09T04:26:06.822Z,94406.25
2022-11-09T04:28:33.700Z,94404.63
2022-11-09T04:31:02.136Z,94415.16
2022-11-09T04:33:29.509Z,94409.91
2022-11-09T04:36:02.665Z,94410.31
2022-11-09T04:38:29.371Z,94407.84
2022-11-09T04:41:01.389Z,94411.66
2022-11-09T04:43:28.643Z,94400.00
2022-11-09T04:45:55.892Z,94399.88
2022-11-09T04:48:22.800Z,94424.34
2022-11-09T04:50:49.551Z,94393.56
2022-11-09T04:53:16.534Z,94411.34
2022-11-09T04:55:43.337Z,94433.00
2022-11-09T04:58:10.720Z,94417.63
2022-11-09T05:00:38.036Z,94426.72
2022-11-09T05:03:06.692Z,94424.94
2022-11-09T05:05:35.476Z,94414.56
2022-11-09T05:08:03.378Z,94426.59
2022-11-09T05:10:30.574Z,94416.44
2022-11-09T05:13:02.953Z,94415.81
2022-11-09T05:15:30.342Z,94405.69
2022-11-09T05:17:57.624Z,94406.50
2022-11-09T05:20:25.438Z,94399.47
2022-11-09T05:23:10.587Z,94395.84
2022-11-09T05:25:37.331Z,94399.31
2022-11-09T05:28:04.440Z,94401.78
2022-11-09T05:30:31.778Z,94412.47
2022-11-09T05:32:58.521Z,94392.97
2022-11-09T05:35:25.337Z,94391.03
2022-11-09T05:37:52.172Z,94388.41
2022-11-09T05:40:20.476Z,94403.34
2022-11-09T05:42:47.961Z,94384.31
2022-11-09T05:48:05.167Z,94396.16
2022-11-09T05:50:32.652Z,94386.19
2022-11-09T05:53:00.691Z,94393.09
2022-11-09T05:55:28.125Z,94395.69
2022-11-09T05:57:55.445Z,94374.16
2022-11-09T06:00:22.709Z,94392.41
2022-11-09T06:02:50.043Z,94392.28
2022-11-09T06:05:17.172Z,94380.81
2022-11-09T06:07:43.980Z,94412.28
2022-11-09T06:10:10.774Z,94378.84
2022-11-09T06:12:37.671Z,94412.50
2022-11-09T06:15:05.712Z,94410.09
2022-11-09T06:17:32.461Z,94420.00
2022-11-09T06:19:59.204Z,94401.91
2022-11-09T06:22:25.973Z,94412.38
2022-11-09T06:24:52.725Z,94393.03
2022-11-09T06:27:19.474Z,94418.66
2022-11-09T06:29:46.365Z,94436.16
2022-11-09T06:32:13.081Z,94421.63
2022-11-09T06:34:39.820Z,94393.56
2022-11-09T06:37:06.541Z,94409.97
2022-11-09T06:39:33.262Z,94431.59
2022-11-09T06:42:00.006Z,94409.44
2022-11-09T06:44:26.722Z,94440.28
2022-11-09T06:46:53.452Z,94441.78
2022-11-09T06:49:20.296Z,94438.34
2022-11-09T06:51:47.085Z,94432.06
2022-11-09T06:54:13.894Z,94454.25
2022-11-09T06:56:40.638Z,94462.00
2022-11-09T06:59:07.944Z,94420.47
2022-11-09T07:01:34.777Z,94422.94
2022-11-09T07:04:01.585Z,94461.72
2022-11-09T07:06:28.408Z,94447.94
2022-11-09T07:08:56.673Z,94473.56
2022-11-09T07:11:23.475Z,94456.22
2022-11-09T07:13:54.785Z,94459.25
2022-11-09T07:16:23.084Z,94468.09
2022-11-09T07:18:49.861Z,94455.38
2022-11-09T07:21:17.095Z,94436.41
2022-11-09T07:23:43.890Z,94458.13
2022-11-09T07:26:10.673Z,94443.03
2022-11-09T07:28:37.456Z,94453.25
2022-11-09T07:31:04.887Z,94414.97
2022-11-09T07:33:33.471Z,94478.84
2022-11-09T07:36:01.433Z,94473.72
2022-11-09T07:38:31.850Z,94492.44
2022-11-09T07:41:03.051Z,94477.94
2022-11-09T07:43:30.076Z,94456.34
2022-11-09T07:45:57.259Z,94481.72
2022-11-09T07:48:24.458Z,94480.09
2022-11-09T07:50:51.308Z,94481.91
2022-11-09T07:53:18.364Z,94479.28
2022-11-09T07:55:45.237Z,94485.69
2022-11-09T07:58:15.207Z,94490.75
2022-11-09T08:00:43.941Z,94511.56
2022-11-09T08:03:11.264Z,94494.84
2022-11-09T08:05:39.235Z,94519.59
2022-11-09T08:08:10.448Z,94515.44
2022-11-09T08:10:38.411Z,94524.75
2022-11-09T08:13:09.980Z,94524.75
2022-11-09T08:15:38.395Z,94512.09
2022-11-09T08:18:08.869Z,94527.81
2022-11-09T08:20:35.655Z,94521.88
2022-11-09T08:23:04.772Z,94531.00
2022-11-09T08:25:34.320Z,94508.06
2022-11-09T08:28:01.338Z,94526.72
2022-11-09T08:30:28.088Z,94519.16
2022-11-09T08:32:55.219Z,94493.00
2022-11-09T08:35:24.641Z,94498.34
2022-11-09T08:37:52.936Z,94518.88
2022-11-09T08:40:24.188Z,94506.31
2022-11-09T08:42:52.101Z,94526.09
2022-11-09T08:45:19.936Z,94515.31
2022-11-09T08:47:47.471Z,94522.75
2022-11-09T08:50:15.707Z,94512.03
2022-11-09T08:52:43.285Z,94511.69
2022-11-09T08:55:10.471Z,94529.59
2022-11-09T08:57:37.878Z,94510.00
2022-11-09T09:00:06.132Z,94514.38
2022-11-09T09:02:33.093Z,94512.75
2022-11-09T09:04:59.927Z,94507.47
2022-11-09T09:07:26.893Z,94507.50
2022-11-09T09:09:53.664Z,94502.50
2022-11-09T09:12:20.530Z,94507.06
2022-11-09T09:14:47.373Z,94509.44
2022-11-09T09:17:14.440Z,94523.63
2022-11-09T09:19:43.822Z,94519.34
2022-11-09T09:22:14.087Z,94514.38
2022-11-09T09:24:40.819Z,94521.84
2022-11-09T09:27:07.546Z,94501.16
2022-11-09T09:29:34.762Z,94511.88
2022-11-09T09:32:01.506Z,94513.13
2022-11-09T09:34:28.224Z,94490.97
2022-11-09T09:36:55.669Z,94508.78
2022-11-09T09:39:22.528Z,94499.16
2022-11-09T09:41:59.540Z,94514.25
2022-11-09T09:44:43.171Z,94514.88
2022-11-09T09:47:18.968Z,94519.88
2022-11-09T09:50:15.246Z,94518.97
2022-11-09T09:53:24.223Z,94508.94
2022-11-09T09:55:56.998Z,94515.31
2022-11-09T09:58:28.197Z,94502.47
2022-11-09T10:01:07.591Z,94499.38
2022-11-09T10:03:34.352Z,94514.91
2022-11-09T10:06:19.885Z,94512.28
2022-11-09T10:08:58.528Z,94505.97
2022-11-09T10:12:05.444Z,94490.13
2022-11-09T10:14:56.308Z,94508.94
2022-11-09T10:17:58.352Z,94497.63
2022-11-09T10:20:52.674Z,94491.59
2022-11-09T10:23:29.136Z,94492.69
2022-11-09T10:26:15.777Z,94485.84
2022-11-09T10:31:34.027Z,94476.06
2022-11-09T10:34:16.698Z,94480.16
2022-11-09T10:36:59.721Z,94483.13
2022-11-09T10:39:41.429Z,94478.47
2022-11-09T10:42:11.557Z,94482.19
2022-11-09T10:44:38.657Z,94467.38
2022-11-09T10:47:17.863Z,94476.59
2022-11-09T10:49:44.674Z,94455.72
2022-11-09T10:52:44.262Z,94470.41
2022-11-09T10:55:28.620Z,94462.75
2022-11-09T10:57:58.640Z,94466.03
2022-11-09T11:00:25.763Z,94464.81
2022-11-09T11:02:54.373Z,94464.44
2022-11-09T11:05:28.520Z,94454.69
2022-11-09T11:07:55.794Z,94472.25
2022-11-09T11:10:23.577Z,94465.22
2022-11-09T11:13:13.465Z,94460.16
2022-11-09T11:15:42.598Z,94456.75
2022-11-09T11:18:25.172Z,94461.06
2022-11-09T11:21:18.976Z,94451.75
2022-11-09T11:24:13.431Z,94444.22
2022-11-09T11:26:57.595Z,94439.59
2022-11-09T11:29:46.752Z,94441.88
2022-11-09T11:32:19.475Z,94441.88
2022-11-09T11:35:03.971Z,94441.47
2022-11-09T11:38:26.936Z,94432.78
2022-11-09T11:41:24.329Z,94433.59
2022-11-09T11:44:29.543Z,94434.84
2022-11-09T11:47:10.039Z,94415.69
2022-11-09T11:49:50.161Z,94427.00
2022-11-09T11:52:33.061Z,94427.81
2022-11-09T11:55:20.631Z,94435.16
2022-11-09T11:58:23.877Z,94427.63
2022-11-09T12:01:13.407Z,94427.47
2022-11-09T12:04:32.388Z,94423.22
2022-11-09T12:07:29.464Z,94410.19
2022-11-09T12:10:02.161Z,94409.38
2022-11-09T12:13:08.456Z,94399.19
2022-11-09T12:15:48.157Z,94398.97
2022-11-09T12:18:20.578Z,94393.47
2022-11-09T12:21:20.868Z,94392.84
2022-11-09T12:24:15.545Z,94394.69
2022-11-09T12:27:30.594Z,94390.00
2022-11-09T12:29:59.703Z,94394.28
2022-11-09T12:32:56.396Z,94392.69
2022-11-09T12:35:30.566Z,94382.06
2022-11-09T12:38:13.072Z,94392.25
2022-11-09T12:40:58.651Z,94397.56
2022-11-09T12:43:50.109Z,94394.31
2022-11-09T12:46:21.327Z,94381.25
2022-11-09T12:48:48.996Z,94396.53
2022-11-09T12:51:16.769Z,94400.78
2022-11-09T12:53:43.531Z,94385.72
2022-11-09T12:56:23.997Z,94392.00
2022-11-09T12:58:50.804Z,94381.84
2022-11-09T13:01:26.361Z,94402.41
2022-11-09T13:03:59.163Z,94381.81
2022-11-09T13:06:33.292Z,94378.72
2022-11-09T13:09:15.521Z,94390.13
2022-11-09T13:11:48.377Z,94388.50
2022-11-09T13:14:29.211Z,94393.63
2022-11-09T13:17:00.707Z,94379.53
2022-11-09T13:19:37.623Z,94394.41
2022-11-09T13:22:16.393Z,94387.22
2022-11-09T13:25:00.205Z,94384.75
2022-11-09T13:27:33.072Z,94388.84
2022-11-09T13:30:01.578Z,94355.16
2022-11-09T13:32:30.457Z,94386.75
2022-11-09T13:35:04.910Z,94386.31
2022-11-09T13:37:48.124Z,94395.50
2022-11-09T13:42:42.894Z,94399.50
2022-11-09T13:45:36.353Z,94399.25
2022-11-09T13:48:03.768Z,94413.53
2022-11-09T13:50:33.468Z,94415.97
2022-11-09T13:53:03.095Z,94419.25
2022-11-09T13:55:39.486Z,94423.28
2022-11-09T13:58:23.161Z,94430.59
2022-11-09T14:00:49.944Z,94416.75
2022-11-09T14:03:26.174Z,94394.22
2022-11-09T14:05:58.311Z,94408.28
2022-11-09T14:08:40.300Z,94421.53
2022-11-09T14:11:37.902Z,94445.41
2022-11-09T14:14:34.075Z,94447.56
2022-11-09T14:17:37.730Z,94434.06
2022-11-09T14:20:21.773Z,94444.25
2022-11-09T14:22:48.688Z,94446.44
2022-11-09T14:25:19.195Z,94441.94
2022-11-09T14:27:57.516Z,94443.97
2022-11-09T14:30:30.729Z,94439.22
2022-11-09T14:32:58.832Z,94442.41
2022-11-09T14:35:36.946Z,94452.84
2022-11-09T14:38:23.858Z,94447.78
2022-11-09T14:40:53.533Z,94443.63
2022-11-09T14:43:31.662Z,94447.28
2022-11-09T14:46:02.129Z,94455.78
2022-11-09T14:48:31.769Z,94464.50
2022-11-09T14:51:04.123Z,94462.00
2022-11-09T14:53:42.681Z,94472.41
2022-11-09T14:56:15.177Z,94475.44
2022-11-09T14:58:44.096Z,94474.69
2022-11-09T15:01:20.224Z,94476.06
2022-11-09T15:04:16.054Z,94477.84
2022-11-09T15:07:04.064Z,94458.22
2022-11-09T15:09:45.087Z,94467.53
2022-11-09T15:12:17.117Z,94492.81
2022-11-09T15:14:54.418Z,94490.28
2022-11-09T15:17:36.902Z,94495.31
2022-11-09T15:20:09.636Z,94489.38
2022-11-09T15:23:11.412Z,94481.22
2022-11-09T15:25:41.781Z,94495.69
2022-11-09T15:28:12.751Z,94495.06
2022-11-09T15:31:09.268Z,94499.06
2022-11-09T15:36:46.091Z,94422.56
2022-11-09T15:39:26.844Z,94430.66
2022-11-09T15:42:13.030Z,94455.50
2022-11-09T15:45:01.679Z,94516.38
2022-11-09T15:48:18.730Z,94506.56
2022-11-09T15:55:08.970Z,94458.97
2022-11-09T16:07:24.134Z,94484.06
2022-11-09T16:10:20.902Z,94488.63
2022-11-09T16:13:07.859Z,94478.59
2022-11-09T16:15:36.896Z,94516.59
2022-11-09T16:18:05.056Z,94527.97
2022-11-09T16:20:31.970Z,94511.06
2022-11-09T16:22:59.149Z,94533.44
2022-11-09T16:25:27.212Z,94530.69
2022-11-09T16:27:54.194Z,94514.88
2022-11-09T16:30:21.734Z,94526.97
2022-11-09T16:32:48.510Z,94542.25
2022-11-09T16:35:30.701Z,94521.34
2022-11-09T16:37:58.147Z,94540.06
2022-11-09T16:40:27.061Z,94551.25
2022-11-09T16:42:53.820Z,94549.63
2022-11-09T16:45:21.649Z,94556.88
2022-11-09T16:47:52.469Z,94555.41
2022-11-09T16:50:19.229Z,94560.50
2022-11-09T16:52:45.988Z,94573.06
2022-11-09T16:55:13.820Z,94579.34
2022-11-09T16:57:40.935Z,94555.63
2022-11-09T17:00:09.613Z,94580.72
2022-11-09T17:02:36.393Z,94591.13
2022-11-09T17:05:04.065Z,94587.81
2022-11-09T17:07:31.954Z,94576.78
2022-11-09T17:09:58.775Z,94591.44
2022-11-09T17:12:25.545Z,94603.94
2022-11-09T17:14:52.363Z,94607.28
2022-11-09T17:17:22.582Z,94612.53
2022-11-09T17:19:49.938Z,94604.31
2022-11-09T17:22:17.498Z,94607.69
2022-11-09T17:24:44.541Z,94621.44
2022-11-09T17:27:12.191Z,94607.19
2022-11-09T17:29:39.881Z,94625.75
2022-11-09T17:32:09.170Z,94625.31
2022-11-09T17:34:36.287Z,94618.22
2022-11-09T17:37:05.443Z,94619.19
2022-11-09T17:39:33.454Z,94615.75
2022-11-09T17:42:00.259Z,94621.56
2022-11-09T17:44:27.175Z,94611.03
2022-11-09T17:46:54.007Z,94610.06
2022-11-09T17:49:20.848Z,94620.53
2022-11-09T17:51:47.637Z,94622.53
2022-11-09T17:54:15.172Z,94619.16
2022-11-09T17:56:42.185Z,94626.88
2022-11-09T17:59:09.349Z,94635.78
2022-11-09T18:01:41.523Z,94629.84
2022-11-09T18:04:11.336Z,94630.88
2022-11-09T18:06:39.033Z,94621.03
2022-11-09T18:11:53.180Z,94629.59
2022-11-09T18:14:20.240Z,94631.75
2022-11-09T18:16:47.132Z,94629.91
2022-11-09T18:19:14.097Z,94631.25
2022-11-09T18:21:41.499Z,94624.59
2022-11-09T18:24:08.885Z,94638.41
2022-11-09T18:26:35.770Z,94651.53
2022-11-09T18:29:02.512Z,94633.63
2022-11-09T18:31:32.180Z,94656.97
2022-11-09T18:33:59.014Z,94648.47
2022-11-09T18:36:26.306Z,94643.38
2022-11-09T18:38:55.884Z,94658.63
2022-11-09T18:41:25.245Z,94661.31
2022-11-09T18:43:54.012Z,94652.47
2022-11-09T18:46:22.311Z,94675.16
2022-11-09T18:48:53.487Z,94677.81
2022-11-09T18:51:20.268Z,94680.44
2022-11-09T18:53:48.493Z,94678.44
2022-11-09T18:56:23.491Z,94668.44
2022-11-09T18:58:53.110Z,94684.03
2022-11-09T19:01:23.102Z,94691.09
2022-11-09T19:03:54.994Z,94690.28
2022-11-09T19:06:24.966Z,94686.06
2022-11-09T19:09:10.237Z,94693.59
2022-11-09T19:11:37.531Z,94703.97
2022-11-09T19:14:04.318Z,94694.63
2022-11-09T19:16:31.527Z,94704.13
2022-11-09T19:18:59.358Z,94709.06
2022-11-09T19:21:35.984Z,94709.06
2022-11-09T19:24:03.554Z,94718.75
2022-11-09T19:26:30.602Z,94709.44
2022-11-09T19:28:57.374Z,94707.13
2022-11-09T19:31:25.048Z,94717.00
2022-11-09T19:33:52.674Z,94733.13
2022-11-09T19:36:30.200Z,94730.50
2022-11-09T19:38:58.893Z,94727.53
2022-11-09T19:41:26.316Z,94736.09
2022-11-09T19:43:58.501Z,94744.63
2022-11-09T19:46:27.709Z,94742.66
2022-11-09T19:48:54.579Z,94746.44
2022-11-09T19:51:21.480Z,94753.50
2022-11-09T19:53:53.470Z,94754.19
2022-11-09T19:56:22.214Z,94753.50
2022-11-09T19:58:51.326Z,94765.06
2022-11-09T20:01:18.964Z,94757.00
2022-11-09T20:03:52.803Z,94766.03
2022-11-09T20:06:24.711Z,94768.00
2022-11-09T20:08:52.347Z,94757.16
2022-11-09T20:11:40.844Z,94758.31
2022-11-09T20:14:09.083Z,94756.84
2022-11-09T20:16:37.355Z,94771.16
2022-11-09T20:19:06.759Z,94758.47
2022-11-09T20:21:33.607Z,94776.09
2022-11-09T20:24:00.498Z,94762.78
2022-11-09T20:26:28.570Z,94784.81
2022-11-09T20:28:56.077Z,94779.88
2022-11-09T20:31:23.658Z,94783.50
2022-11-09T20:33:50.941Z,94795.03
2022-11-09T20:36:19.007Z,94799.00
2022-11-09T20:38:47.203Z,94804.41
2022-11-09T20:41:14.296Z,94792.56
2022-11-09T20:43:41.445Z,94797.03
2022-11-09T20:46:16.020Z,94802.59
2022-11-09T20:48:59.242Z,94808.66
2022-11-09T20:51:26.455Z,94806.38
2022-11-09T20:53:53.295Z,94807.88
2022-11-09T20:56:21.046Z,94810.00
2022-11-09T20:58:48.270Z,94802.28
2022-11-09T21:01:21.598Z,94807.56
2022-11-09T21:03:50.985Z,94801.78
2022-11-09T21:06:18.581Z,94807.06
2022-11-09T21:08:51.155Z,94815.09
2022-11-09T21:11:19.133Z,94813.63
2022-11-09T21:13:53.388Z,94817.41
2022-11-09T21:16:22.471Z,94825.31
2022-11-09T21:18:49.335Z,94821.03
2022-11-09T21:21:19.788Z,94815.78
2022-11-09T21:24:05.691Z,94827.28
2022-11-09T21:26:51.623Z,94829.91
2022-11-09T21:29:40.193Z,94829.06
2022-11-09T21:32:07.899Z,94829.25
2022-11-09T21:34:37.046Z,94819.41
2022-11-09T21:37:04.862Z,94826.44
2022-11-09T21:39:32.057Z,94833.38
2022-11-09T21:41:58.976Z,94829.59
2022-11-09T21:44:29.436Z,94845.53
2022-11-09T21:46:56.204Z,94831.22
2022-11-09T21:49:23.143Z,94837.97
2022-11-09T21:51:49.931Z,94834.50
2022-11-09T21:54:17.161Z,94842.09
2022-11-09T21:56:44.215Z,94836.50
2022-11-09T21:59:10.970Z,94859.34
2022-11-09T22:01:37.765Z,94847.66
2022-11-09T22:04:04.945Z,94854.59
2022-11-09T22:06:31.730Z,94845.03
2022-11-09T22:08:58.523Z,94845.22
2022-11-09T22:11:45.742Z,94852.63
2022-11-09T22:14:37.579Z,94856.56
2022-11-09T22:17:08.702Z,94850.00
2022-11-09T22:19:57.120Z,94861.47
2022-11-09T22:22:25.844Z,94851.63
2022-11-09T22:24:52.660Z,94867.41
2022-11-09T22:27:19.400Z,94857.22
2022-11-09T22:29:46.120Z,94859.19
2022-11-09T22:32:12.816Z,94871.19
2022-11-09T22:34:39.571Z,94855.41
2022-11-09T22:37:06.293Z,94873.97
2022-11-09T22:39:33.051Z,94869.06
2022-11-09T22:42:00.800Z,94873.81
2022-11-09T22:44:27.598Z,94879.91
2022-11-09T22:46:54.369Z,94875.31
2022-11-09T22:49:21.131Z,94877.94
2022-11-09T22:51:48.155Z,94881.38
2022-11-09T22:54:14.966Z,94872.34
2022-11-09T22:56:41.690Z,94894.38
2022-11-09T22:59:08.504Z,94886.63
2022-11-09T23:01:35.287Z,94878.59
2022-11-09T23:04:02.030Z,94885.31
2022-11-09T23:06:29.338Z,94884.00
2022-11-09T23:08:56.158Z,94900.63
2022-11-09T23:11:25.121Z,94891.41
2022-11-09T23:13:54.016Z,94895.69
2022-11-09T23:16:22.444Z,94895.31
2022-11-09T23:18:55.358Z,94894.19
2022-11-09T23:21:28.724Z,94902.41
2022-11-09T23:23:58.681Z,94910.13
2022-11-09T23:26:26.538Z,94915.22
2022-11-09T23:28:54.212Z,94924.59
2022-11-09T23:31:24.455Z,94931.44
2022-11-09T23:33:58.078Z,94952.19
2022-11-09T23:36:26.519Z,94946.25
2022-11-09T23:38:53.614Z,94946.53
2022-11-09T23:41:21.278Z,94959.59
2022-11-09T23:43:49.898Z,94955.78
2022-11-09T23:46:17.564Z,94957.78
2022-11-09T23:48:44.524Z,94959.28
2022-11-09T23:51:11.634Z,94969.06
2022-11-09T23:53:39.198Z,94966.59
2022-11-09T23:56:09.730Z,94969.94
2022-11-09T23:58:37.275Z,94970.44
